Time;durP1;ratioP1;P1;durP2;ratioP2;P2;SDS_P1;SDS_P2;PMS_P1;PMS_P2;Temp;Humidity;BMP_temperature;BMP_pressure;BME280_temperature;BME280_humidity;BME280_pressure;Samples;Min_cycle;Max_cycle;Signal;HPM_P1;HPM_P2
2021/04/28 00:02:09;;;;;;;48.08;23.40;;;;;;;0.78;67.24;99666.72;1751360;80;21151;-73
2021/04/28 00:04:37;;;;;;;44.18;22.65;;;;;;;0.78;67.39;99671.92;1753083;80;21131;-73
2021/04/28 00:07:05;;;;;;;47.03;23.73;;;;;;;0.78;67.32;99658.91;1763407;80;21123;-73
2021/04/28 00:09:33;;;;;;;46.00;23.85;;;;;;;0.78;67.37;99671.92;1713237;84;21795;-73
2021/04/28 00:12:02;;;;;;;45.83;24.45;;;;;;;0.81;67.23;99664.00;1701419;84;21155;-73
2021/04/28 00:14:32;;;;;;;45.70;23.90;;;;;;;0.77;67.33;99666.31;1749156;82;21210;-74
2021/04/28 00:16:59;;;;;;;46.60;22.90;;;;;;;0.78;67.34;99671.92;1749203;82;21184;-74
2021/04/28 00:19:28;;;;;;;42.95;22.98;;;;;;;0.72;67.35;99673.41;1749386;81;21627;-73
2021/04/28 00:21:56;;;;;;;43.65;21.90;;;;;;;0.73;67.43;99667.31;1768384;80;21136;-73
2021/04/28 00:24:25;;;;;;;41.77;22.17;;;;;;;0.72;67.36;99677.31;1709741;83;21211;-73
2021/04/28 00:26:53;;;;;;;39.20;21.07;;;;;;;0.77;67.04;99671.52;1779014;80;21204;-73
2021/04/28 00:29:21;;;;;;;41.65;22.07;;;;;;;0.80;66.80;99674.02;1713510;84;21159;-73
2021/04/28 00:31:50;;;;;;;41.28;21.35;;;;;;;0.88;66.73;99678.14;1750426;80;21613;-73
2021/04/28 00:34:19;;;;;;;42.20;22.10;;;;;;;0.93;66.36;99676.23;1749605;80;21301;-73
2021/04/28 00:36:50;;;;;;;34.25;20.40;;;;;;;0.93;66.22;99671.91;1749274;82;21099;-73
2021/04/28 00:39:19;;;;;;;37.58;19.27;;;;;;;0.96;66.08;99685.27;1754334;80;21175;-73
2021/04/28 00:41:46;;;;;;;33.88;18.62;;;;;;;0.84;66.25;99673.94;1748972;82;21136;-73
2021/04/28 00:44:16;;;;;;;34.53;18.30;;;;;;;0.79;66.33;99674.94;1749352;82;21160;-73
2021/04/28 00:46:45;;;;;;;30.92;17.20;;;;;;;0.66;66.82;99672.30;1746277;82;21183;-72
2021/04/28 00:49:13;;;;;;;33.80;17.57;;;;;;;0.62;67.06;99673.30;1730738;80;21350;-72
2021/04/28 00:51:41;;;;;;;32.93;17.62;;;;;;;0.51;67.34;99670.16;1749314;82;21639;-72
2021/04/28 00:54:11;;;;;;;34.67;17.95;;;;;;;0.45;67.53;99677.26;1749201;81;21463;-72
2021/04/28 00:56:38;;;;;;;38.23;18.77;;;;;;;0.33;67.88;99685.42;1749447;82;21219;-72
2021/04/28 00:59:05;;;;;;;40.30;20.57;;;;;;;0.28;67.91;99678.20;1752079;81;21168;-73
2021/04/28 01:01:33;;;;;;;41.28;22.48;;;;;;;0.22;68.05;99682.27;1732684;82;21175;-73
2021/04/28 01:04:00;;;;;;;41.98;20.15;;;;;;;0.27;67.98;99683.86;1741380;82;22298;-73
2021/04/28 01:06:28;;;;;;;41.60;20.92;;;;;;;0.27;67.86;99677.36;1685754;84;21172;-74
2021/04/28 01:08:57;;;;;;;38.08;20.10;;;;;;;0.34;67.81;99678.02;1736520;82;21132;-73
2021/04/28 01:11:25;;;;;;;43.38;21.80;;;;;;;0.35;67.78;99686.23;1706076;84;21348;-73
2021/04/28 01:13:58;;;;;;;39.08;20.37;;;;;;;0.35;67.79;99684.94;1741185;81;21163;-74
2021/04/28 01:16:28;;;;;;;41.40;20.85;;;;;;;0.38;67.73;99683.53;1760076;81;21144;-73
2021/04/28 01:18:56;;;;;;;41.60;20.65;;;;;;;0.45;67.60;99688.97;1741934;81;21124;-74
2021/04/28 01:21:23;;;;;;;40.63;20.60;;;;;;;0.48;67.30;99675.02;1743063;82;21457;-74
2021/04/28 01:23:51;;;;;;;34.08;19.75;;;;;;;0.52;67.11;99675.31;1743676;82;21141;-74
2021/04/28 01:26:20;;;;;;;34.67;18.50;;;;;;;0.54;67.08;99672.66;1747454;81;21140;-73
2021/04/28 01:28:48;;;;;;;39.60;20.17;;;;;;;0.46;67.19;99675.50;1771851;81;21148;-73
2021/04/28 01:31:20;;;;;;;47.40;25.35;;;;;;;0.35;67.60;99684.09;1669293;84;21338;-74
2021/04/28 01:34:01;;;;;;;45.90;25.52;;;;;;;0.23;67.82;99676.18;1761927;81;21550;-73
2021/04/28 01:36:37;;;;;;;50.55;25.57;;;;;;;0.19;67.98;99675.41;1747425;81;21180;-72
2021/04/28 01:39:09;;;;;;;43.58;23.10;;;;;;;0.16;67.95;99672.45;1753521;81;21750;-72
2021/04/28 01:41:39;;;;;;;45.78;23.50;;;;;;;0.22;67.86;99681.84;1705712;84;21184;-72
2021/04/28 01:44:12;;;;;;;41.58;21.33;;;;;;;0.22;67.87;99674.47;1702816;84;21183;-72
2021/04/28 01:46:40;;;;;;;48.42;23.80;;;;;;;0.19;68.00;99681.07;1741495;82;21176;-72
2021/04/28 01:49:08;;;;;;;52.88;27.02;;;;;;;0.11;68.16;99675.63;1741228;82;21277;-72
2021/04/28 01:51:37;;;;;;;53.08;27.90;;;;;;;0.08;68.15;99678.80;1741202;82;21663;-72
2021/04/28 01:54:10;;;;;;;52.20;25.52;;;;;;;0.04;68.07;99676.72;1742165;81;21168;-72
2021/04/28 01:56:37;;;;;;;35.85;18.57;;;;;;;0.08;68.02;99680.94;1741156;82;21314;-72
2021/04/28 01:59:28;;;;;;;42.78;20.95;;;;;;;0.06;68.55;99677.52;1807129;79;23094;-72
2021/04/28 02:01:57;;;;;;;44.15;22.35;;;;;;;-0.08;68.62;99682.25;1766161;80;21314;-72
2021/04/28 02:04:30;;;;;;;50.03;25.75;;;;;;;-0.18;68.91;99679.92;1763290;80;21282;-72
2021/04/28 02:06:58;;;;;;;53.38;24.27;;;;;;;-0.20;69.06;99684.30;1744188;81;21313;-72
2021/04/28 02:09:28;;;;;;;43.85;21.05;;;;;;;-0.23;69.09;99684.39;1719955;83;21139;-72
2021/04/28 02:11:57;;;;;;;43.48;20.52;;;;;;;-0.20;69.10;99682.99;1707195;84;21623;-74
2021/04/28 02:14:26;;;;;;;37.28;18.77;;;;;;;-0.24;69.42;99680.08;1713426;82;21294;-73
2021/04/28 02:16:59;;;;;;;40.80;19.73;;;;;;;-0.28;69.39;99683.66;1716655;82;21181;-74
2021/04/28 02:19:28;;;;;;;46.13;20.72;;;;;;;-0.37;69.76;99690.38;1701517;84;21180;-73
2021/04/28 02:21:56;;;;;;;49.58;23.40;;;;;;;-0.39;70.02;99688.28;1701062;84;21141;-73
2021/04/28 02:24:33;;;;;;;41.25;19.82;;;;;;;-0.35;70.15;99678.20;1812589;79;22929;-72
2021/04/28 02:27:03;;;;;;;39.85;19.45;;;;;;;-0.35;70.15;99684.70;1745907;81;21167;-72
2021/04/28 02:29:33;;;;;;;40.45;19.82;;;;;;;-0.37;70.11;99686.48;1767260;80;21280;-73
2021/04/28 02:32:01;;;;;;;41.18;20.72;;;;;;;-0.35;70.21;99684.70;1756253;80;21162;-73
2021/04/28 02:34:38;;;;;;;43.80;25.27;;;;;;;-0.28;70.28;99691.45;1790981;79;28608;-72
2021/04/28 02:37:13;;;;;;;39.03;20.15;;;;;;;-0.10;69.85;99695.30;1756675;80;21162;-72
2021/04/28 02:39:45;;;;;;;32.83;17.30;;;;;;;0.14;69.21;99691.16;1780349;80;21142;-73
2021/04/28 02:42:13;;;;;;;30.70;16.87;;;;;;;0.09;69.16;99693.05;1787908;80;21702;-72
2021/04/28 02:44:42;;;;;;;35.85;17.05;;;;;;;0.03;69.27;99697.57;1777570;80;21169;-72
2021/04/28 02:47:11;;;;;;;39.92;19.62;;;;;;;-0.07;69.38;99697.80;1729827;82;21174;-72
2021/04/28 02:49:42;;;;;;;39.40;19.75;;;;;;;-0.10;69.50;99699.62;1771498;80;21291;-72
2021/04/28 02:52:23;;;;;;;39.50;19.85;;;;;;;-0.13;69.51;99695.83;1752355;80;21127;-72
2021/04/28 02:54:50;;;;;;;38.55;19.57;;;;;;;-0.05;69.28;99697.75;1757144;80;21154;-72
2021/04/28 02:57:22;;;;;;;35.50;18.42;;;;;;;0.00;69.16;99694.61;1729711;82;21178;-72
2021/04/28 02:59:52;;;;;;;36.77;18.00;;;;;;;0.09;68.89;99697.38;1756279;81;21579;-72
2021/04/28 03:02:25;;;;;;;38.08;17.75;;;;;;;0.10;68.84;99694.76;1768306;80;21301;-72
2021/04/28 03:04:53;;;;;;;40.67;19.67;;;;;;;0.12;68.84;99696.84;1781208;80;21154;-72
2021/04/28 03:07:22;;;;;;;42.90;20.90;;;;;;;0.08;68.99;99704.34;1766645;80;21150;-73
2021/04/28 03:09:49;;;;;;;39.03;19.23;;;;;;;0.14;69.11;99706.77;1776211;80;21130;-72
2021/04/28 03:13:33;;;;;;;30.27;16.70;;;;;;;0.62;69.10;99698.02;1821566;79;22248;-72
2021/04/28 03:16:02;;;;;;;33.90;19.48;;;;;;;1.06;68.47;99702.31;1780058;80;21332;-72
2021/04/28 03:18:30;;;;;;;31.75;17.35;;;;;;;1.49;67.55;99703.10;1746055;82;21155;-73
2021/04/28 03:20:59;;;;;;;34.88;19.35;;;;;;;1.98;66.41;99703.98;1702011;82;21147;-74
2021/04/28 03:23:30;;;;;;;36.85;19.37;;;;;;;2.46;65.24;99693.96;1746065;82;21183;-73
2021/04/28 03:25:59;;;;;;;31.80;17.85;;;;;;;2.87;64.38;99703.72;1747578;80;21296;-73
2021/04/28 03:28:28;;;;;;;33.50;19.02;;;;;;;3.23;63.22;99702.31;1747098;80;21143;-73
2021/04/28 03:30:56;;;;;;;34.63;18.70;;;;;;;3.21;62.35;99710.23;1761350;80;21142;-73
2021/04/28 03:33:26;;;;;;;31.97;17.02;;;;;;;3.08;62.49;99715.09;1733166;83;21298;-73
2021/04/28 03:36:02;;;;;;;39.58;20.30;;;;;;;3.37;62.14;99723.50;1695615;83;21188;-74
2021/04/28 03:38:48;;;;;;;35.95;18.90;;;;;;;3.84;61.14;99720.28;1789025;80;21114;-74
2021/04/28 03:41:18;;;;;;;33.80;18.37;;;;;;;4.39;60.51;99718.30;1792508;80;21320;-74
2021/04/28 03:43:46;;;;;;;32.15;17.65;;;;;;;4.98;59.42;99728.23;1792308;80;21128;-73
2021/04/28 03:46:17;;;;;;;35.70;18.23;;;;;;;5.53;57.83;99714.19;1785424;80;21163;-73
2021/04/28 03:48:55;;;;;;;31.93;16.80;;;;;;;6.12;56.30;99719.11;1779464;79;22953;-73
2021/04/28 03:51:24;;;;;;;33.92;17.82;;;;;;;6.56;54.99;99716.38;1740851;82;21643;-73
2021/04/28 03:54:07;;;;;;;33.55;18.10;;;;;;;6.90;53.87;99715.83;1753019;82;21180;-73
2021/04/28 03:56:34;;;;;;;68.52;33.02;;;;;;;7.32;52.53;99726.16;1753018;82;21370;-73
2021/04/28 03:59:03;;;;;;;70.92;33.25;;;;;;;7.68;50.80;99723.64;1750935;82;21155;-73
2021/04/28 04:01:31;;;;;;;63.38;31.17;;;;;;;7.87;49.82;99725.20;1752994;82;21320;-73
2021/04/28 04:04:01;;;;;;;58.68;27.32;;;;;;;7.95;49.21;99735.28;1750966;81;21178;-73
2021/04/28 04:06:48;;;;;;;46.10;23.57;;;;;;;8.06;49.15;99728.03;1741100;82;21202;-73
2021/04/28 04:09:22;;;;;;;36.37;18.03;;;;;;;8.21;48.90;99733.72;1718763;82;21158;-74
2021/04/28 04:11:49;;;;;;;31.93;16.62;;;;;;;8.43;48.70;99736.36;1723320;82;21763;-74
2021/04/28 04:14:28;;;;;;;28.92;15.20;;;;;;;8.77;47.84;99736.91;1721583;82;21709;-74
2021/04/28 04:16:57;;;;;;;30.08;16.17;;;;;;;9.10;46.88;99742.30;1684094;82;21178;-74
2021/04/28 04:19:24;;;;;;;28.38;14.05;;;;;;;9.35;46.28;99740.25;1681808;84;21194;-74
2021/04/28 04:22:08;;;;;;;24.67;14.78;;;;;;;9.65;45.50;99747.94;1949562;73;22826;-74
2021/04/28 04:24:41;;;;;;;21.55;13.40;;;;;;;9.83;45.00;99752.92;1827717;78;21567;-73
2021/04/28 04:27:10;;;;;;;26.42;15.68;;;;;;;10.10;44.30;99758.60;1789528;79;21351;-74
2021/04/28 04:29:49;;;;;;;25.60;13.88;;;;;;;10.33;43.78;99748.63;1793314;79;21157;-75
2021/04/28 04:32:37;;;;;;;22.55;13.13;;;;;;;10.65;42.89;99748.20;1780109;79;22901;-75
2021/04/28 04:35:18;;;;;;;19.85;12.28;;;;;;;10.94;41.37;99754.52;1681260;83;21611;-74
2021/04/28 04:38:03;;;;;;;22.32;12.50;;;;;;;11.21;40.72;99754.80;1725288;83;21127;-76
2021/04/28 04:40:41;;;;;;;19.55;11.10;;;;;;;11.38;40.33;99758.02;1734061;82;21139;-76
2021/04/28 04:43:22;;;;;;;15.53;10.70;;;;;;;11.41;39.87;99758.64;1730340;82;21622;-75
2021/04/28 04:45:51;;;;;;;18.98;10.85;;;;;;;11.68;39.68;99759.37;1730822;82;21325;-75
2021/04/28 04:48:19;;;;;;;19.23;9.53;;;;;;;12.07;38.64;99763.95;1733514;82;21119;-75
2021/04/28 04:50:48;;;;;;;20.15;11.35;;;;;;;12.11;38.65;99761.42;1723019;83;21309;-75
2021/04/28 04:53:15;;;;;;;18.60;9.85;;;;;;;12.24;38.01;99758.70;1739124;82;21682;-75
2021/04/28 04:55:42;;;;;;;17.87;10.78;;;;;;;12.31;38.11;99765.69;1735591;81;21179;-75
2021/04/28 04:58:10;;;;;;;18.05;9.95;;;;;;;12.42;37.69;99761.23;1739476;82;21162;-75
2021/04/28 05:00:37;;;;;;;18.67;10.58;;;;;;;12.57;37.68;99772.92;1733864;82;22180;-75
2021/04/28 05:03:04;;;;;;;17.40;10.82;;;;;;;12.77;38.62;99770.03;1734130;82;21146;-77
2021/04/28 05:05:32;;;;;;;20.55;12.60;;;;;;;13.55;37.75;99772.18;1735309;81;21762;-78
2021/04/28 05:07:59;;;;;;;23.67;14.00;;;;;;;13.55;37.75;99772.18;1729966;82;21186;-75
2021/04/28 05:10:28;;;;;;;16.32;10.28;;;;;;;13.73;37.64;99780.47;1744661;82;21595;-77
2021/04/28 05:12:56;;;;;;;20.43;10.85;;;;;;;13.85;36.73;99778.59;1736679;82;22179;-77
2021/04/28 05:15:23;;;;;;;19.57;10.40;;;;;;;13.91;36.01;99786.06;1736444;82;21205;-78
2021/04/28 05:17:50;;;;;;;19.65;11.10;;;;;;;14.02;36.06;99782.98;1718165;83;21145;-79
2021/04/28 05:20:17;;;;;;;26.82;14.68;;;;;;;14.14;34.68;99790.40;1708905;84;21330;-77
2021/04/28 05:22:45;;;;;;;15.50;9.53;;;;;;;14.14;35.86;99783.25;1708665;84;21196;-77
2021/04/28 05:25:33;;;;;;;14.00;9.30;;;;;;;14.34;34.06;99791.38;1708934;84;21214;-75
2021/04/28 05:28:00;;;;;;;21.17;11.50;;;;;;;14.26;33.37;99792.86;1702616;83;21178;-75
2021/04/28 05:30:28;;;;;;;19.42;9.93;;;;;;;14.13;33.25;99804.20;1694158;84;21222;-76
2021/04/28 05:32:56;;;;;;;20.68;10.50;;;;;;;13.98;33.25;99800.14;1705150;83;21143;-76
2021/04/28 05:35:24;;;;;;;18.98;10.03;;;;;;;13.66;34.04;99803.66;1723948;83;21160;-76
2021/04/28 05:37:54;;;;;;;20.05;9.08;;;;;;;13.53;34.69;99807.81;1723770;83;21654;-78
2021/04/28 05:40:21;;;;;;;15.10;8.28;;;;;;;13.63;35.19;99806.59;1722325;83;21324;-76
2021/04/28 05:42:49;;;;;;;17.30;8.68;;;;;;;13.60;34.46;99809.02;1712556;83;22188;-77
2021/04/28 05:45:16;;;;;;;13.05;6.60;;;;;;;13.54;35.04;99815.69;1723586;83;21682;-76
2021/04/28 05:47:44;;;;;;;8.53;5.90;;;;;;;13.47;34.36;99814.98;1711210;83;21210;-75
2021/04/28 05:50:14;;;;;;;8.75;5.00;;;;;;;13.47;34.21;99814.48;1700318;83;21337;-75
2021/04/28 05:52:41;;;;;;;4.92;4.03;;;;;;;13.43;32.85;99821.03;1692878;85;21211;-77
2021/04/28 05:55:11;;;;;;;9.10;4.92;;;;;;;13.22;32.85;99821.77;1708145;83;21615;-77
2021/04/28 05:57:39;;;;;;;7.22;4.10;;;;;;;13.23;33.24;99820.77;1723279;83;21158;-77
2021/04/28 06:00:12;;;;;;;10.90;4.35;;;;;;;13.35;33.39;99816.30;1723560;83;21771;-77
2021/04/28 06:02:40;;;;;;;7.08;4.60;;;;;;;13.49;33.31;99828.97;1723385;83;21182;-77
2021/04/28 06:05:08;;;;;;;7.20;4.03;;;;;;;13.63;33.32;99819.38;1723267;83;21199;-77
2021/04/28 06:07:35;;;;;;;6.28;4.00;;;;;;;13.76;32.47;99828.05;1703956;83;21179;-76
2021/04/28 06:10:04;;;;;;;8.88;4.22;;;;;;;13.85;32.34;99833.09;1719046;83;21115;-77
2021/04/28 06:12:31;;;;;;;6.05;3.87;;;;;;;13.75;31.63;99824.19;1700461;83;21170;-77
2021/04/28 06:14:59;;;;;;;7.00;3.65;;;;;;;13.55;31.69;99823.98;1696551;83;21190;-76
2021/04/28 06:17:26;;;;;;;6.45;3.77;;;;;;;13.42;31.35;99829.95;1698314;83;21123;-78
2021/04/28 06:19:53;;;;;;;8.08;5.33;;;;;;;13.28;32.32;99826.56;1694503;84;21215;-78
2021/04/28 06:22:20;;;;;;;8.38;4.15;;;;;;;13.41;32.81;99835.77;1716751;83;21292;-78
2021/04/28 06:24:48;;;;;;;8.55;5.58;;;;;;;13.59;33.13;99837.41;1719235;82;21579;-77
2021/04/28 06:27:15;;;;;;;21.30;5.62;;;;;;;13.81;32.43;99830.33;1707167;83;21186;-74
2021/04/28 06:29:45;;;;;;;10.18;5.55;;;;;;;13.98;32.54;99838.23;1694590;83;21300;-76
2021/04/28 06:32:12;;;;;;;8.63;5.28;;;;;;;14.04;32.10;99843.50;1696509;83;21182;-76
2021/04/28 06:34:39;;;;;;;9.58;5.53;;;;;;;13.84;32.10;99838.04;1700150;84;21167;-75
2021/04/28 06:37:06;;;;;;;8.10;5.70;;;;;;;13.78;32.13;99833.22;1707634;84;21143;-77
2021/04/28 06:39:35;;;;;;;69.07;9.28;;;;;;;13.57;31.65;99835.35;1709692;84;21789;-76
2021/04/28 06:42:03;;;;;;;9.05;5.05;;;;;;;13.34;33.03;99845.62;1707951;83;21258;-75
2021/04/28 06:44:31;;;;;;;13.90;4.65;;;;;;;13.44;32.77;99836.00;1705024;84;21308;-75
2021/04/28 06:46:58;;;;;;;5.03;2.87;;;;;;;13.54;33.06;99834.28;1691926;84;21143;-74
2021/04/28 06:49:26;;;;;;;9.83;3.75;;;;;;;13.75;32.16;99841.46;1702952;84;21187;-75
2021/04/28 06:51:53;;;;;;;6.28;3.62;;;;;;;13.92;31.87;99841.39;1697412;84;21690;-81
2021/04/28 06:54:21;;;;;;;6.17;3.67;;;;;;;14.00;31.84;99842.08;1693969;84;21115;-82
2021/04/28 06:56:49;;;;;;;11.88;5.92;;;;;;;13.93;31.25;99844.41;1679551;84;21187;-79
2021/04/28 06:59:18;;;;;;;5.22;3.33;;;;;;;13.85;32.04;99850.36;1706111;82;21144;-79
2021/04/28 07:01:48;;;;;;;6.75;3.20;;;;;;;13.95;31.72;99843.78;1711621;82;21185;-80
2021/04/28 07:04:15;;;;;;;9.95;3.70;;;;;;;14.01;31.46;99851.25;1699747;84;21762;-78
2021/04/28 07:06:43;;;;;;;11.53;3.77;;;;;;;13.99;31.63;99844.38;1693302;82;21551;-77
2021/04/28 07:09:10;;;;;;;7.17;3.40;;;;;;;14.03;31.35;99852.48;1697315;84;21301;-78
2021/04/28 07:11:39;;;;;;;5.67;3.20;;;;;;;13.98;31.87;99858.16;1687004;84;21976;-77
2021/04/28 07:14:06;;;;;;;23.12;4.15;;;;;;;13.95;31.48;99862.89;1713408;82;21146;-75
2021/04/28 07:16:33;;;;;;;7.15;3.40;;;;;;;13.97;31.57;99852.98;1681311;85;21613;-76
2021/04/28 07:19:02;;;;;;;4.90;3.33;;;;;;;13.92;31.49;99863.48;1722323;82;21203;-78
2021/04/28 07:21:30;;;;;;;11.22;3.30;;;;;;;13.92;30.98;99859.50;1693253;82;21215;-76
2021/04/28 07:23:57;;;;;;;5.12;3.25;;;;;;;13.86;31.31;99857.84;1695500;82;21603;-76
2021/04/28 07:26:25;;;;;;;7.50;4.03;;;;;;;13.85;31.94;99854.82;1693174;82;21257;-77
2021/04/28 07:28:52;;;;;;;5.97;3.40;;;;;;;13.85;32.16;99861.00;1707467;84;21744;-79
2021/04/28 07:31:20;;;;;;;8.18;3.60;;;;;;;13.91;31.87;99852.98;1712140;82;21147;-78
2021/04/28 07:33:48;;;;;;;3.87;2.85;;;;;;;14.00;32.16;99857.56;1687610;84;21636;-77
2021/04/28 07:36:17;;;;;;;22.60;3.72;;;;;;;14.08;32.10;99855.59;1716779;82;21136;-78
2021/04/28 07:38:44;;;;;;;4.78;3.20;;;;;;;14.09;31.47;99855.92;1703898;84;21139;-78
2021/04/28 07:41:12;;;;;;;5.47;3.05;;;;;;;14.11;31.11;99851.34;1699644;82;21155;-76
2021/04/28 07:43:39;;;;;;;6.50;2.92;;;;;;;14.07;30.41;99848.59;1684155;84;21183;-75
2021/04/28 07:46:06;;;;;;;12.00;3.25;;;;;;;13.99;30.42;99849.22;1715283;82;21322;-76
2021/04/28 07:48:34;;;;;;;33.53;5.03;;;;;;;13.93;30.74;99854.55;1727751;82;21144;-76
2021/04/28 07:51:02;;;;;;;4.00;2.58;;;;;;;13.89;30.42;99847.80;1697391;82;21659;-75
2021/04/28 07:53:29;;;;;;;5.05;2.72;;;;;;;13.78;29.67;99855.81;1713914;82;21178;-79
2021/04/28 07:55:57;;;;;;;4.17;2.60;;;;;;;13.58;30.31;99847.67;1698547;84;21147;-74
2021/04/28 07:58:24;;;;;;;5.50;2.70;;;;;;;13.54;30.33;99846.70;1697270;82;21131;-75
2021/04/28 08:00:52;;;;;;;3.90;2.60;;;;;;;13.53;30.88;99841.03;1704207;84;21757;-76
2021/04/28 08:03:19;;;;;;;5.72;2.58;;;;;;;13.48;30.50;99839.23;1718231;82;21183;-75
2021/04/28 08:05:49;;;;;;;4.30;2.70;;;;;;;13.44;30.60;99846.63;1744675;81;21168;-75
2021/04/28 08:08:16;;;;;;;5.03;2.75;;;;;;;13.44;30.62;99844.80;1700169;82;21194;-74
2021/04/28 08:10:44;;;;;;;4.33;2.70;;;;;;;13.34;31.74;99848.28;1696134;82;21199;-74
2021/04/28 08:13:14;;;;;;;3.77;2.65;;;;;;;13.40;31.58;99845.16;1681166;84;21219;-74
2021/04/28 08:15:41;;;;;;;6.15;2.67;;;;;;;13.36;30.48;99846.35;1717260;82;21265;-74
2021/04/28 08:18:09;;;;;;;4.40;2.80;;;;;;;13.39;31.64;99840.84;1693772;84;21128;-74
2021/04/28 08:20:38;;;;;;;3.72;2.55;;;;;;;13.49;31.09;99843.11;1714608;82;21325;-73
2021/04/28 08:23:06;;;;;;;5.37;3.40;;;;;;;13.57;31.16;99843.32;1737123;82;21600;-74
2021/04/28 08:25:34;;;;;;;5.75;3.40;;;;;;;13.59;31.23;99841.86;1736659;82;21195;-73
2021/04/28 08:28:05;;;;;;;8.38;3.10;;;;;;;13.60;31.59;99843.06;1733154;82;21605;-74
2021/04/28 08:30:33;;;;;;;5.10;2.77;;;;;;;13.56;30.68;99837.64;1690805;82;21302;-73
2021/04/28 08:33:06;;;;;;;9.30;2.80;;;;;;;13.52;30.94;99849.49;1703261;82;21146;-74
2021/04/28 08:35:34;;;;;;;4.00;2.62;;;;;;;13.53;31.04;99834.38;1702885;84;21179;-73
2021/04/28 08:38:01;;;;;;;7.92;3.10;;;;;;;13.54;31.10;99843.58;1696293;82;21139;-75
2021/04/28 08:40:28;;;;;;;4.15;2.67;;;;;;;13.50;31.79;99834.15;1687914;84;21174;-74
2021/04/28 08:42:56;;;;;;;4.15;2.60;;;;;;;13.25;31.43;99848.06;1687746;82;21320;-75
2021/04/28 08:45:23;;;;;;;3.92;2.72;;;;;;;13.24;32.05;99838.41;1714841;84;21749;-75
2021/04/28 08:47:52;;;;;;;4.80;2.95;;;;;;;13.24;32.05;99838.41;1721895;82;21333;-74
2021/04/28 08:50:19;;;;;;;5.55;2.83;;;;;;;13.15;31.80;99844.95;1708972;82;21171;-75
2021/04/28 08:52:47;;;;;;;5.65;2.85;;;;;;;13.15;31.80;99844.95;1708206;84;21301;-76
2021/04/28 08:55:14;;;;;;;5.67;2.60;;;;;;;13.21;32.06;99845.30;1714340;82;21168;-76
2021/04/28 08:57:43;;;;;;;4.67;2.95;;;;;;;13.32;31.67;99840.94;1694667;84;21167;-74
2021/04/28 09:00:11;;;;;;;5.50;2.83;;;;;;;13.45;30.44;99831.02;1707098;82;21124;-74
2021/04/28 09:02:53;;;;;;;5.20;3.52;;;;;;;13.45;30.44;99831.02;1728924;82;21587;-75
2021/04/28 09:05:20;;;;;;;4.28;2.77;;;;;;;13.34;30.49;99828.36;1717286;82;21191;-75
2021/04/28 09:07:48;;;;;;;5.80;3.00;;;;;;;13.17;31.08;99821.76;1744419;82;21167;-74
2021/04/28 09:10:23;;;;;;;11.83;3.80;;;;;;;13.16;31.53;99824.91;1692600;82;21190;-75
2021/04/28 09:12:59;;;;;;;8.23;3.47;;;;;;;13.30;31.65;99824.27;1716841;82;21141;-75
2021/04/28 09:15:45;;;;;;;5.15;3.15;;;;;;;13.46;31.25;99826.08;1715458;84;21166;-74
2021/04/28 09:18:14;;;;;;;13.00;3.50;;;;;;;13.57;30.91;99828.70;1720432;82;21289;-73
2021/04/28 09:21:01;;;;;;;4.85;2.70;;;;;;;13.59;31.49;99828.11;1688401;84;21136;-74
2021/04/28 09:23:47;;;;;;;4.90;3.10;;;;;;;13.64;31.05;99825.55;1712526;82;21224;-73
2021/04/28 09:26:23;;;;;;;7.15;3.15;;;;;;;13.65;31.34;99819.27;1643862;85;21268;-74
2021/04/28 09:29:06;;;;;;;8.08;4.90;;;;;;;13.67;31.53;99830.14;1722231;82;21591;-74
2021/04/28 09:31:35;;;;;;;4.50;3.10;;;;;;;13.75;30.82;99828.17;1700251;84;21195;-74
2021/04/28 09:34:03;;;;;;;3.58;2.60;;;;;;;13.69;29.39;99824.19;1705436;82;21209;-75
2021/04/28 09:36:37;;;;;;;4.40;3.20;;;;;;;13.46;29.80;99814.62;1693430;84;21294;-75
2021/04/28 09:39:10;;;;;;;4.65;3.20;;;;;;;13.33;30.54;99812.92;1705653;82;21179;-74
2021/04/28 09:41:44;;;;;;;5.93;3.93;;;;;;;13.41;31.46;99821.62;1703873;83;21162;-75
2021/04/28 09:44:28;;;;;;;6.72;3.52;;;;;;;13.44;30.26;99817.41;1703544;83;21179;-76
2021/04/28 09:47:11;;;;;;;5.25;3.10;;;;;;;13.26;30.85;99807.73;1708523;83;21135;-75
2021/04/28 09:49:56;;;;;;;7.60;3.72;;;;;;;13.11;31.34;99815.14;1692133;83;21143;-75
2021/04/28 09:52:36;;;;;;;4.80;2.83;;;;;;;13.05;31.44;99810.31;1733893;82;21312;-75
2021/04/28 09:55:15;;;;;;;5.25;3.47;;;;;;;13.01;30.98;99805.73;1708740;83;21179;-75
2021/04/28 09:57:48;;;;;;;8.80;3.52;;;;;;;13.03;31.19;99804.27;1717960;82;21175;-75
2021/04/28 10:00:28;;;;;;;11.85;4.22;;;;;;;13.14;31.93;99794.14;1707614;82;21193;-74
2021/04/28 10:02:59;;;;;;;5.28;3.40;;;;;;;13.38;32.71;99801.96;1705789;82;21155;-74
2021/04/28 10:05:35;;;;;;;6.00;3.50;;;;;;;13.62;32.30;99799.11;1693403;83;21702;-74
2021/04/28 10:08:14;;;;;;;8.55;3.50;;;;;;;13.73;31.66;99801.73;1714700;82;21130;-74
2021/04/28 10:10:42;;;;;;;5.78;3.30;;;;;;;13.77;31.69;99804.95;1707295;83;21147;-74
2021/04/28 10:13:14;;;;;;;7.35;3.52;;;;;;;13.83;31.58;99808.44;1700129;82;21224;-74
2021/04/28 10:15:43;;;;;;;4.20;2.90;;;;;;;13.93;31.22;99806.70;1715608;82;21623;-72
2021/04/28 10:18:12;;;;;;;5.78;3.08;;;;;;;14.04;31.02;99800.95;1714309;82;21258;-74
2021/04/28 10:20:45;;;;;;;4.87;2.95;;;;;;;14.06;29.29;99793.70;1712736;82;21179;-73
2021/04/28 10:23:15;;;;;;;5.03;3.33;;;;;;;14.06;29.29;99793.70;1697859;83;21183;-74
2021/04/28 10:25:48;;;;;;;17.75;3.50;;;;;;;13.88;29.27;99790.28;1701402;82;21171;-75
2021/04/28 10:28:17;;;;;;;7.15;3.30;;;;;;;13.77;30.39;99794.32;1703513;83;21648;-76
2021/04/28 10:30:47;;;;;;;3.90;2.80;;;;;;;13.89;30.43;99797.30;1730439;82;21195;-74
2021/04/28 10:33:23;;;;;;;6.40;3.05;;;;;;;13.89;30.43;99797.30;1718176;82;21315;-74
2021/04/28 10:35:50;;;;;;;5.25;3.42;;;;;;;13.98;30.60;99786.38;1718297;82;21155;-75
2021/04/28 10:38:26;;;;;;;4.15;2.85;;;;;;;14.00;30.42;99792.89;1700032;83;21126;-75
2021/04/28 10:40:54;;;;;;;6.92;3.83;;;;;;;14.01;29.93;99787.94;1705211;82;21175;-75
2021/04/28 10:43:37;;;;;;;11.18;7.80;;;;;;;13.90;29.30;99784.83;1722134;82;21198;-74
2021/04/28 10:46:20;;;;;;;6.35;3.50;;;;;;;13.85;29.49;99781.25;1702232;82;21131;-74
2021/04/28 10:48:49;;;;;;;6.90;3.08;;;;;;;13.80;29.57;99782.59;1711226;83;21311;-76
2021/04/28 10:51:37;;;;;;;36.80;6.00;;;;;;;13.76;30.79;99788.17;1703388;82;21134;-73
2021/04/28 10:54:25;;;;;;;5.12;3.20;;;;;;;13.89;30.87;99778.69;1720229;82;21183;-74
2021/04/28 10:57:08;;;;;;;4.87;3.52;;;;;;;13.98;30.21;99766.44;1698862;83;21533;-74
2021/04/28 10:59:39;;;;;;;47.17;5.33;;;;;;;13.98;30.21;99766.44;1707397;82;22569;-74
2021/04/28 11:02:15;;;;;;;5.55;3.10;;;;;;;13.99;30.18;99770.79;1707736;83;21131;-74
2021/04/28 11:04:45;;;;;;;8.78;3.62;;;;;;;14.02;30.27;99777.66;1712985;82;21566;-74
2021/04/28 11:07:15;;;;;;;28.52;5.50;;;;;;;14.10;29.77;99772.53;1694645;83;21126;-73
2021/04/28 11:09:43;;;;;;;6.92;3.72;;;;;;;14.10;29.77;99772.53;1712025;82;21110;-72
2021/04/28 11:12:11;;;;;;;12.07;3.77;;;;;;;14.14;30.21;99770.45;1714290;82;21214;-74
2021/04/28 11:14:46;;;;;;;5.83;3.10;;;;;;;14.19;29.27;99764.25;1693642;83;21166;-73
2021/04/28 11:17:22;;;;;;;6.50;3.00;;;;;;;14.13;30.00;99760.78;1714541;83;21655;-73
2021/04/28 11:19:51;;;;;;;4.65;3.22;;;;;;;14.13;30.00;99760.78;1708668;82;21703;-74
2021/04/28 11:22:28;;;;;;;4.97;3.22;;;;;;;14.15;29.56;99755.69;1747457;82;21702;-74
2021/04/28 11:25:12;;;;;;;5.28;3.40;;;;;;;14.10;29.73;99749.92;1753332;82;21174;-75
2021/04/28 11:27:57;;;;;;;;;;;;;;;14.10;29.73;99749.92;1736639;81;21154;-74
2021/04/28 11:30:39;;;;;;;30.30;5.22;;;;;;;14.11;29.82;99744.97;1698475;83;20470;-73
2021/04/28 11:33:13;;;;;;;7.15;3.67;;;;;;;14.12;30.29;99746.66;1725947;82;21202;-73
2021/04/28 11:35:59;;;;;;;8.50;3.40;;;;;;;14.12;30.29;99746.66;1728581;83;21171;-73
2021/04/28 11:38:32;;;;;;;268.45;29.87;;;;;;;14.31;30.31;99753.05;1724546;81;21166;-73
2021/04/28 11:41:14;;;;;;;15.13;4.22;;;;;;;14.31;30.31;99753.05;1728070;83;21364;-80
2021/04/28 11:43:46;;;;;;;4.80;2.87;;;;;;;14.40;30.21;99748.28;1723182;81;21372;-75
2021/04/28 11:46:17;;;;;;;5.45;2.98;;;;;;;14.40;29.31;99747.78;1716571;83;21603;-74